createdAt,value
2023-03-05T00:00:16.708Z,97481.44
2023-03-05T00:03:04.568Z,97479.38
2023-03-05T00:05:34.548Z,97480.23
2023-03-05T00:08:02.464Z,97477.59
2023-03-05T00:10:30.506Z,97476.04
2023-03-05T00:12:58.599Z,97479.19
2023-03-05T00:15:26.553Z,97479.50
2023-03-05T00:17:54.452Z,97478.36
2023-03-05T00:20:22.310Z,97477.95
2023-03-05T00:22:50.181Z,97478.03
2023-03-05T00:25:18.194Z,97474.88
2023-03-05T00:27:46.228Z,97468.68
2023-03-05T00:30:14.683Z,97468.09
2023-03-05T00:32:42.559Z,97465.80
2023-03-05T00:35:11.015Z,97463.11
2023-03-05T00:37:39.243Z,97461.55
2023-03-05T00:40:08.580Z,97456.69
2023-03-05T00:42:41.039Z,97454.18
2023-03-05T00:45:10.994Z,97446.80
2023-03-05T00:47:39.979Z,97448.13
2023-03-05T00:50:09.389Z,97446.69
2023-03-05T00:52:37.450Z,97448.85
2023-03-05T00:55:05.858Z,97449.10
2023-03-05T00:57:33.865Z,97446.20
2023-03-05T01:00:01.828Z,97443.70
2023-03-05T01:02:29.917Z,97440.08
2023-03-05T01:04:58.945Z,97434.48
2023-03-05T01:07:26.944Z,97436.48
2023-03-05T01:09:55.011Z,97431.69
2023-03-05T01:12:23.041Z,97430.54
2023-03-05T01:14:51.024Z,97429.58
2023-03-05T01:17:19.246Z,97427.60
2023-03-05T01:19:47.194Z,97429.11
2023-03-05T01:22:15.178Z,97436.48
2023-03-05T01:24:43.141Z,97430.52
2023-03-05T01:27:11.098Z,97434.50
2023-03-05T01:29:39.147Z,97430.63
2023-03-05T01:32:07.288Z,97432.84
2023-03-05T01:34:37.920Z,97431.60
2023-03-05T01:37:05.960Z,97435.63
2023-03-05T01:39:34.391Z,97436.61
2023-03-05T01:42:04.212Z,97440.73
2023-03-05T01:44:34.088Z,97436.86
2023-03-05T01:47:02.072Z,97433.78
2023-03-05T01:49:40.034Z,97435.64
2023-03-05T01:52:11.455Z,97428.89
2023-03-05T01:54:44.229Z,97433.70
2023-03-05T01:57:21.884Z,97428.95
2023-03-05T01:59:56.335Z,97427.77
2023-03-05T02:02:25.181Z,97428.02
2023-03-05T02:05:02.779Z,97427.38
2023-03-05T02:07:32.676Z,97426.64
2023-03-05T02:10:00.687Z,97424.06
2023-03-05T02:12:28.732Z,97424.32
2023-03-05T02:14:59.659Z,97422.08
2023-03-05T02:17:28.482Z,97421.27
2023-03-05T02:20:04.931Z,97420.11
2023-03-05T02:22:33.003Z,97415.98
2023-03-05T02:25:01.558Z,97413.64
2023-03-05T02:27:35.896Z,97410.85
2023-03-05T02:30:04.072Z,97409.15
2023-03-05T02:32:32.543Z,97407.31
2023-03-05T02:35:00.666Z,97410.61
2023-03-05T02:37:29.053Z,97409.42
2023-03-05T02:39:57.408Z,97405.73
2023-03-05T02:42:25.450Z,97401.74
2023-03-05T02:44:53.421Z,97401.55
2023-03-05T02:47:21.403Z,97405.86
2023-03-05T02:49:49.437Z,97403.21
2023-03-05T02:52:20.639Z,97400.42
2023-03-05T02:54:49.013Z,97402.47
2023-03-05T02:57:17.647Z,97392.59
2023-03-05T02:59:47.213Z,97394.47
2023-03-05T03:02:15.347Z,97393.30
2023-03-05T03:04:44.372Z,97391.86
2023-03-05T03:07:14.235Z,97392.41
2023-03-05T03:09:46.711Z,97390.09
2023-03-05T03:12:14.749Z,97380.84
2023-03-05T03:14:43.109Z,97378.84
2023-03-05T03:17:17.032Z,97380.80
2023-03-05T03:19:46.027Z,97383.61
2023-03-05T03:22:16.349Z,97382.91
2023-03-05T03:24:44.721Z,97388.91
2023-03-05T03:27:12.635Z,97393.10
2023-03-05T03:29:40.555Z,97385.90
2023-03-05T03:32:08.742Z,97381.80
2023-03-05T03:34:37.047Z,97390.58
2023-03-05T03:37:05.154Z,97387.44
2023-03-05T03:39:33.077Z,97384.17
2023-03-05T03:42:52.428Z,97377.79
2023-03-05T03:45:22.375Z,97379.69
2023-03-05T03:47:51.546Z,97369.75
2023-03-05T03:50:22.288Z,97370.64
2023-03-05T03:52:50.222Z,97372.73
2023-03-05T03:55:18.852Z,97369.23
2023-03-05T04:02:14.437Z,97374.05
2023-03-05T04:04:42.467Z,97373.06
2023-03-05T04:07:10.736Z,97368.61
2023-03-05T04:09:39.105Z,97363.54
2023-03-05T04:12:07.417Z,97368.64
2023-03-05T04:14:35.692Z,97363.62
2023-03-05T04:17:03.662Z,97364.64
2023-03-05T04:19:31.562Z,97364.98
2023-03-05T04:21:59.747Z,97362.64
2023-03-05T04:24:27.691Z,97362.57
2023-03-05T04:26:55.564Z,97368.58
2023-03-05T04:29:23.553Z,97362.08
2023-03-05T04:31:51.426Z,97353.84
2023-03-05T04:34:19.336Z,97351.33
2023-03-05T04:36:47.332Z,97348.67
2023-03-05T04:39:15.784Z,97345.79
2023-03-05T04:41:43.790Z,97344.73
2023-03-05T04:44:11.970Z,97338.91
2023-03-05T04:46:40.655Z,97332.84
2023-03-05T04:49:08.648Z,97333.30
2023-03-05T04:51:36.524Z,97336.52
2023-03-05T04:54:04.763Z,97335.33
2023-03-05T04:56:32.704Z,97331.21
2023-03-05T04:59:03.044Z,97328.97
2023-03-05T05:01:33.093Z,97327.54
2023-03-05T05:04:01.532Z,97328.46
2023-03-05T05:06:29.531Z,97325.17
2023-03-05T05:08:58.628Z,97318.20
2023-03-05T05:11:26.506Z,97313.23
2023-03-05T05:13:54.373Z,97310.29
2023-03-05T05:16:22.527Z,97312.91
2023-03-05T05:18:50.818Z,97310.21
2023-03-05T05:21:20.479Z,97313.13
2023-03-05T05:23:48.943Z,97311.34
2023-03-05T05:26:16.897Z,97313.34
2023-03-05T05:28:44.841Z,97318.30
2023-03-05T05:31:16.075Z,97326.17
2023-03-05T05:33:44.395Z,97332.58
2023-03-05T05:36:19.305Z,97340.91
2023-03-05T05:38:47.290Z,97341.48
2023-03-05T05:41:17.536Z,97338.91
2023-03-05T05:43:45.815Z,97342.56
2023-03-05T05:46:19.775Z,97350.23
2023-03-05T05:48:48.096Z,97349.81
2023-03-05T05:51:21.938Z,97349.34
2023-03-05T05:53:50.181Z,97355.30
2023-03-05T05:56:18.982Z,97358.15
2023-03-05T05:58:48.794Z,97352.55
2023-03-05T06:01:28.129Z,97350.61
2023-03-05T06:03:57.162Z,97342.73
2023-03-05T06:06:26.884Z,97339.47
2023-03-05T06:08:55.941Z,97336.73
2023-03-05T06:11:24.232Z,97334.42
2023-03-05T06:13:52.386Z,97333.29
2023-03-05T06:16:24.223Z,97330.00
2023-03-05T06:18:53.039Z,97330.58
2023-03-05T06:21:25.261Z,97332.19
2023-03-05T06:23:53.212Z,97333.98
2023-03-05T06:26:22.457Z,97338.23
2023-03-05T06:28:50.597Z,97335.89
2023-03-05T06:31:26.955Z,97333.15
2023-03-05T06:33:57.720Z,97337.24
2023-03-05T06:36:27.651Z,97332.88
2023-03-05T06:38:56.579Z,97328.48
2023-03-05T06:41:29.990Z,97325.14
2023-03-05T06:44:02.508Z,97325.61
2023-03-05T06:46:33.547Z,97322.72
2023-03-05T06:49:02.448Z,97320.15
2023-03-05T06:51:33.196Z,97319.02
2023-03-05T06:54:04.655Z,97315.39
2023-03-05T06:56:35.150Z,97316.22
2023-03-05T06:59:03.157Z,97314.96
2023-03-05T07:01:31.085Z,97316.88
2023-03-05T07:04:00.438Z,97314.72
2023-03-05T07:06:31.816Z,97316.30
2023-03-05T07:09:01.447Z,97310.77
2023-03-05T07:11:30.627Z,97310.77
2023-03-05T07:13:59.090Z,97311.95
2023-03-05T07:16:30.859Z,97305.92
2023-03-05T07:19:00.630Z,97302.59
2023-03-05T07:21:30.550Z,97299.89
2023-03-05T07:24:01.502Z,97298.10
2023-03-05T07:26:31.723Z,97298.50
2023-03-05T07:28:59.791Z,97297.27
2023-03-05T07:31:31.268Z,97297.13
2023-03-05T07:34:02.064Z,97292.96
2023-03-05T07:36:31.688Z,97287.80
2023-03-05T07:38:59.658Z,97288.27
2023-03-05T07:41:27.675Z,97286.42
2023-03-05T07:43:56.390Z,97278.50
2023-03-05T07:46:28.283Z,97279.45
2023-03-05T07:48:57.041Z,97277.41
2023-03-05T07:51:27.298Z,97278.48
2023-03-05T07:53:57.753Z,97276.05
2023-03-05T07:56:32.620Z,97269.75
2023-03-05T07:59:03.059Z,97272.60
2023-03-05T08:01:33.006Z,97270.54
2023-03-05T08:04:02.315Z,97262.65
2023-03-05T08:06:30.399Z,97259.64
2023-03-05T08:08:59.125Z,97261.30
2023-03-05T08:11:29.002Z,97260.38
2023-03-05T08:14:00.508Z,97263.23
2023-03-05T08:16:28.892Z,97260.17
2023-03-05T08:18:57.995Z,97257.40
2023-03-05T08:21:36.360Z,97258.27
2023-03-05T08:24:08.225Z,97258.50
2023-03-05T08:26:38.662Z,97255.68
2023-03-05T08:29:10.918Z,97256.58
2023-03-05T08:31:39.598Z,97258.52
2023-03-05T08:34:07.640Z,97258.76
2023-03-05T08:36:35.632Z,97257.58
2023-03-05T08:39:04.173Z,97258.92
2023-03-05T08:41:32.490Z,97251.95
2023-03-05T08:44:01.540Z,97252.09
2023-03-05T08:46:29.779Z,97250.23
2023-03-05T08:48:57.802Z,97243.36
2023-03-05T08:51:27.439Z,97236.66
2023-03-05T08:53:58.605Z,97237.65
2023-03-05T08:56:28.647Z,97236.30
2023-03-05T08:58:56.826Z,97233.73
2023-03-05T09:01:25.237Z,97231.86
2023-03-05T09:03:54.185Z,97233.88
2023-03-05T09:06:22.329Z,97229.39
2023-03-05T09:08:50.521Z,97227.67
2023-03-05T09:11:19.148Z,97228.86
2023-03-05T09:13:47.178Z,97220.97
2023-03-05T09:16:17.849Z,97218.12
2023-03-05T09:18:46.249Z,97220.09
2023-03-05T09:21:19.038Z,97219.89
2023-03-05T09:23:47.558Z,97218.23
2023-03-05T09:26:19.498Z,97219.02
2023-03-05T09:28:49.626Z,97213.34
2023-03-05T09:31:18.214Z,97213.00
2023-03-05T09:33:48.706Z,97215.52
2023-03-05T09:36:20.437Z,97212.30
2023-03-05T09:38:49.358Z,97208.65
2023-03-05T09:41:37.939Z,97208.24
2023-03-05T09:44:49.088Z,97206.66
2023-03-05T09:50:35.316Z,97201.67
2023-03-05T09:53:12.449Z,97203.00
2023-03-05T09:55:45.012Z,97203.25
2023-03-05T09:58:18.428Z,97206.52
2023-03-05T10:00:54.941Z,97202.27
2023-03-05T10:04:15.348Z,97203.42
2023-03-05T10:07:08.979Z,97201.61
2023-03-05T10:09:57.443Z,97192.81
2023-03-05T10:12:34.553Z,97189.10
2023-03-05T10:15:03.307Z,97185.91
2023-03-05T10:17:49.876Z,97186.98
2023-03-05T10:20:50.468Z,97180.27
2023-03-05T10:23:46.577Z,97175.98
2023-03-05T10:26:36.594Z,97173.70
2023-03-05T10:29:16.948Z,97167.06
2023-03-05T10:32:02.879Z,97165.23
2023-03-05T10:34:47.260Z,97162.09
2023-03-05T10:38:00.944Z,97160.57
2023-03-05T10:40:35.262Z,97153.70
2023-03-05T10:43:27.799Z,97161.50
2023-03-05T10:45:58.462Z,97168.39
2023-03-05T10:48:41.658Z,97162.61
2023-03-05T10:51:19.165Z,97161.73
2023-03-05T10:53:58.176Z,97159.99
2023-03-05T10:56:29.621Z,97157.09
2023-03-05T10:58:57.781Z,97151.89
2023-03-05T11:01:32.058Z,97152.34
2023-03-05T11:04:03.783Z,97151.27
2023-03-05T11:06:43.681Z,97152.25
2023-03-05T11:09:17.644Z,97154.70
2023-03-05T11:12:12.838Z,97152.61
2023-03-05T11:14:42.776Z,97141.55
2023-03-05T11:17:38.320Z,97144.56
2023-03-05T11:21:09.039Z,97139.63
2023-03-05T11:24:43.958Z,97142.02
2023-03-05T11:28:36.119Z,97136.38
2023-03-05T11:32:24.656Z,97128.32
2023-03-05T11:36:22.150Z,97127.48
2023-03-05T11:39:51.344Z,97126.19
2023-03-05T11:43:40.925Z,97123.67
2023-03-05T11:47:53.989Z,97120.14
2023-03-05T11:50:31.550Z,97116.27
2023-03-05T11:53:07.790Z,97113.58
2023-03-05T11:55:50.168Z,97105.75
2023-03-05T11:58:29.406Z,97107.73
2023-03-05T12:00:57.997Z,97101.47
2023-03-05T12:03:33.036Z,97092.85
2023-03-05T12:06:14.922Z,97095.80
2023-03-05T12:08:49.958Z,97084.55
2023-03-05T12:11:27.837Z,97085.52
2023-03-05T12:14:20.637Z,97089.33
2023-03-05T12:17:05.514Z,97085.91
2023-03-05T12:19:52.117Z,97079.83
2023-03-05T12:22:34.425Z,97079.25
2023-03-05T12:25:24.768Z,97078.63
2023-03-05T12:27:52.818Z,97069.05
2023-03-05T12:30:43.568Z,97077.14
2023-03-05T12:33:57.028Z,97081.03
2023-03-05T12:36:24.864Z,97074.95
2023-03-05T12:38:55.262Z,97071.80
2023-03-05T12:41:23.131Z,97079.97
2023-03-05T12:44:06.369Z,97070.48
2023-03-05T12:46:39.051Z,97057.83
2023-03-05T12:49:20.253Z,97057.59
2023-03-05T12:51:51.450Z,97053.98
2023-03-05T12:54:25.400Z,97048.60
2023-03-05T12:56:58.372Z,97055.39
2023-03-05T12:59:42.588Z,97056.11
2023-03-05T13:02:28.512Z,97056.66
2023-03-05T13:05:00.547Z,97050.61
2023-03-05T13:07:28.658Z,97045.71
2023-03-05T13:09:58.930Z,97048.26
2023-03-05T13:12:30.807Z,97042.15
2023-03-05T13:15:08.862Z,97051.02
2023-03-05T13:17:57.752Z,97064.52
2023-03-05T13:20:34.125Z,97056.49
2023-03-05T13:23:08.152Z,97056.12
2023-03-05T13:25:36.200Z,97058.89
2023-03-05T13:28:10.421Z,97061.43
2023-03-05T13:30:38.627Z,97062.95
2023-03-05T13:33:06.544Z,97056.30
2023-03-05T13:35:35.151Z,97056.02
2023-03-05T13:38:03.184Z,97060.79
2023-03-05T13:40:33.079Z,97062.04
2023-03-05T13:43:13.573Z,97065.54
2023-03-05T13:45:44.108Z,97068.45
2023-03-05T13:48:19.723Z,97072.35
2023-03-05T13:50:57.304Z,97059.65
2023-03-05T13:54:09.485Z,97064.83
2023-03-05T14:00:01.434Z,97056.25
2023-03-05T14:02:32.382Z,97063.75
2023-03-05T14:05:01.391Z,97051.04
2023-03-05T14:10:39.829Z,97062.41
2023-03-05T14:13:19.374Z,97059.77
2023-03-05T14:16:35.933Z,97046.55
2023-03-05T14:19:09.266Z,97045.67
2023-03-05T14:22:19.929Z,97033.81
2023-03-05T14:24:53.280Z,97031.04
2023-03-05T14:27:22.136Z,97035.85
2023-03-05T14:29:50.159Z,97036.91
2023-03-05T14:32:28.780Z,97034.46
2023-03-05T14:34:59.610Z,97035.55
2023-03-05T14:37:36.096Z,97031.36
2023-03-05T14:40:41.816Z,97027.84
2023-03-05T14:43:11.427Z,97025.80
2023-03-05T14:45:43.622Z,97028.81
2023-03-05T14:48:14.034Z,97027.52
2023-03-05T14:50:45.087Z,97017.80
2023-03-05T14:53:18.163Z,97017.71
2023-03-05T14:55:50.580Z,97017.48
2023-03-05T14:58:22.914Z,97010.98
2023-03-05T15:00:51.432Z,97014.27
2023-03-05T15:03:23.145Z,97007.70
2023-03-05T15:05:54.370Z,97006.49
2023-03-05T15:08:28.535Z,97012.65
2023-03-05T15:10:57.018Z,97009.95
2023-03-05T15:13:25.048Z,97010.84
2023-03-05T15:15:54.893Z,97006.36
2023-03-05T15:18:23.844Z,96999.92
2023-03-05T15:20:53.448Z,97001.95
2023-03-05T15:23:25.799Z,97000.08
2023-03-05T15:25:53.892Z,96999.51
2023-03-05T15:28:21.789Z,97004.25
2023-03-05T15:30:49.745Z,96996.43
2023-03-05T15:33:17.900Z,96990.05
2023-03-05T15:35:46.276Z,96992.54
2023-03-05T15:38:16.569Z,96987.87
2023-03-05T15:40:45.196Z,96986.48
2023-03-05T15:43:14.999Z,96988.02
2023-03-05T15:45:43.024Z,96992.64
2023-03-05T15:48:40.594Z,96992.23
2023-03-05T15:51:09.606Z,96996.27
2023-03-05T15:53:39.062Z,97003.78
2023-03-05T15:56:07.242Z,96998.15
2023-03-05T15:58:35.193Z,96999.46
2023-03-05T16:01:03.338Z,96993.18
2023-03-05T16:03:31.471Z,97002.77
2023-03-05T16:05:59.493Z,97009.23
2023-03-05T16:08:27.600Z,97007.96
2023-03-05T16:10:55.626Z,97013.71
2023-03-05T16:13:24.137Z,97006.83
2023-03-05T16:15:54.814Z,97012.26
2023-03-05T16:18:25.167Z,97009.46
2023-03-05T16:20:53.816Z,97009.55
2023-03-05T16:23:22.396Z,97006.36
2023-03-05T16:25:50.796Z,97009.52
2023-03-05T16:28:18.829Z,97008.48
2023-03-05T16:30:56.330Z,97004.02
2023-03-05T16:33:25.401Z,96997.95
2023-03-05T16:36:27.381Z,96994.58
2023-03-05T16:38:58.235Z,96993.65
2023-03-05T16:41:28.071Z,96989.71
2023-03-05T16:43:56.765Z,96989.86
2023-03-05T16:46:28.551Z,96982.14
2023-03-05T16:49:00.116Z,96991.53
2023-03-05T16:51:28.040Z,96989.39
2023-03-05T16:53:56.314Z,96997.12
2023-03-05T16:56:29.405Z,97010.61
2023-03-05T16:58:57.553Z,97014.77
2023-03-05T17:01:25.933Z,97006.79
2023-03-05T17:03:54.871Z,97009.23
2023-03-05T17:06:25.465Z,97015.28
2023-03-05T17:08:55.037Z,97018.14
2023-03-05T17:11:23.456Z,97027.52
2023-03-05T17:13:52.407Z,97030.41
2023-03-05T17:16:20.938Z,97031.92
2023-03-05T17:18:49.219Z,97031.63
2023-03-05T17:21:17.493Z,97030.65
2023-03-05T17:23:46.053Z,97031.70
2023-03-05T17:26:18.236Z,97030.70
2023-03-05T17:28:46.993Z,97029.29
2023-03-05T17:31:15.221Z,97028.73
2023-03-05T17:33:44.383Z,97029.23
2023-03-05T17:36:18.925Z,97027.00
2023-03-05T17:38:47.832Z,97028.02
2023-03-05T17:41:17.858Z,97026.00
2023-03-05T17:44:27.004Z,97031.67
2023-03-05T17:46:55.367Z,97031.45
2023-03-05T17:49:23.621Z,97030.56
2023-03-05T17:51:51.860Z,97037.17
2023-03-05T17:54:20.508Z,97033.64
2023-03-05T17:56:58.659Z,97036.79
2023-03-05T17:59:27.214Z,97034.27
2023-03-05T18:01:55.969Z,97031.40
2023-03-05T18:05:02.122Z,97031.13
2023-03-05T18:07:31.694Z,97026.29
2023-03-05T18:10:00.793Z,97025.45
2023-03-05T18:12:29.451Z,97026.82
2023-03-05T18:15:00.481Z,97021.92
2023-03-05T18:17:28.567Z,97025.36
2023-03-05T18:19:56.971Z,97022.30
2023-03-05T18:22:25.150Z,97019.00
2023-03-05T18:24:53.999Z,97014.08
2023-03-05T18:27:22.532Z,97014.88
2023-03-05T18:29:54.186Z,97015.76
2023-03-05T18:32:24.539Z,97017.75
2023-03-05T18:34:53.394Z,97022.28
2023-03-05T18:37:21.483Z,97018.27
2023-03-05T18:39:49.549Z,97018.04
2023-03-05T18:42:17.437Z,97015.86
2023-03-05T18:44:45.317Z,97013.86
2023-03-05T18:47:13.222Z,97012.32
2023-03-05T18:49:41.692Z,97012.91
2023-03-05T18:52:11.802Z,97011.73
2023-03-05T18:54:40.595Z,97010.71
2023-03-05T18:57:08.981Z,97009.27
2023-03-05T18:59:37.094Z,97005.70
2023-03-05T19:02:06.432Z,97005.32
2023-03-05T19:04:34.903Z,97005.35
2023-03-05T19:07:14.923Z,97005.08
2023-03-05T19:09:58.123Z,97007.38
2023-03-05T19:15:40.558Z,97005.21
2023-03-05T19:18:08.863Z,97013.15
2023-03-05T19:24:02.362Z,97013.27
2023-03-05T19:26:37.635Z,97013.41
2023-03-05T19:29:06.995Z,97010.84
2023-03-05T19:32:07.905Z,97015.11
2023-03-05T19:34:47.929Z,97014.80
2023-03-05T19:37:16.942Z,97011.28
2023-03-05T19:39:45.139Z,97011.10
2023-03-05T19:42:13.452Z,97016.32
2023-03-05T19:44:41.503Z,97011.73
2023-03-05T19:47:42.600Z,97011.70
2023-03-05T19:50:29.716Z,97006.33
2023-03-05T19:52:58.025Z,97008.02
2023-03-05T19:55:26.178Z,97003.67
2023-03-05T19:57:54.887Z,97003.89
2023-03-05T20:00:26.421Z,97004.06
2023-03-05T20:02:54.826Z,97004.80
2023-03-05T20:05:32.997Z,97007.05
2023-03-05T20:08:01.815Z,97006.56
2023-03-05T20:10:29.856Z,97002.38
2023-03-05T20:12:57.947Z,97007.42
2023-03-05T20:15:29.335Z,97016.29
2023-03-05T20:17:57.861Z,97008.16
2023-03-05T20:20:25.938Z,96999.84
2023-03-05T20:22:54.355Z,97000.45
2023-03-05T20:25:25.416Z,96993.86
2023-03-05T20:27:53.439Z,96993.26
2023-03-05T20:30:21.542Z,96994.55
2023-03-05T20:32:49.733Z,96989.64
2023-03-05T20:35:19.347Z,96989.67
2023-03-05T20:38:14.054Z,96990.92
2023-03-05T20:40:45.017Z,96986.85
2023-03-05T20:43:13.085Z,96984.58
2023-03-05T20:46:00.756Z,96984.83
2023-03-05T20:48:32.689Z,96981.83
2023-03-05T20:51:13.302Z,96979.01
2023-03-05T20:53:41.555Z,96978.91
2023-03-05T20:56:09.988Z,96975.23
2023-03-05T20:58:38.289Z,96975.72
2023-03-05T21:01:06.892Z,96974.54
2023-03-05T21:03:37.341Z,96968.23
2023-03-05T21:06:07.173Z,96968.11
2023-03-05T21:08:35.447Z,96970.04
2023-03-05T21:11:08.527Z,96963.67
2023-03-05T21:13:37.765Z,96955.45
2023-03-05T21:16:11.192Z,96957.61
2023-03-05T21:18:40.708Z,96954.03
2023-03-05T21:21:08.831Z,96954.13
2023-03-05T21:23:37.117Z,96954.75
2023-03-05T21:26:08.726Z,96949.89
2023-03-05T21:28:40.482Z,96952.22
2023-03-05T21:31:15.391Z,96946.42
2023-03-05T21:33:43.689Z,96946.67
2023-03-05T21:36:11.800Z,96946.34
2023-03-05T21:38:40.755Z,96944.56
2023-03-05T21:41:08.800Z,96942.23
2023-03-05T21:43:36.977Z,96937.96
2023-03-05T21:46:05.661Z,96928.94
2023-03-05T21:48:34.030Z,96927.77
2023-03-05T21:52:02.361Z,96925.20
2023-03-05T21:54:33.424Z,96928.08
2023-03-05T21:57:01.598Z,96930.88
2023-03-05T21:59:29.632Z,96933.88
2023-03-05T22:01:57.925Z,96932.41
2023-03-05T22:04:26.096Z,96931.80
2023-03-05T22:06:54.396Z,96929.34
2023-03-05T22:09:22.495Z,96926.26
2023-03-05T22:11:50.588Z,96929.04
2023-03-05T22:14:18.578Z,96924.21
2023-03-05T22:16:46.684Z,96921.77
2023-03-05T22:19:15.001Z,96922.33
2023-03-05T22:22:36.658Z,96922.73
2023-03-05T22:25:05.614Z,96905.33
2023-03-05T22:27:33.958Z,96920.70
2023-03-05T22:30:10.906Z,96921.29
2023-03-05T22:33:02.030Z,96919.48
2023-03-05T22:36:16.443Z,96917.92
2023-03-05T22:40:04.202Z,96919.71
2023-03-05T22:43:12.525Z,96915.84
2023-03-05T22:46:21.168Z,96913.28
2023-03-05T22:50:01.120Z,96911.74
2023-03-05T22:52:29.547Z,96905.52
2023-03-05T22:54:58.300Z,96910.41
2023-03-05T22:57:26.493Z,96903.75
2023-03-05T22:59:54.757Z,96897.86
2023-03-05T23:02:23.115Z,96895.98
2023-03-05T23:04:59.092Z,96900.80
2023-03-05T23:07:29.851Z,96904.28
2023-03-05T23:10:20.250Z,96904.82
2023-03-05T23:12:51.113Z,96902.73
2023-03-05T23:15:25.598Z,96905.45
2023-03-05T23:18:21.469Z,96899.34
2023-03-05T23:20:49.621Z,96896.53
2023-03-05T23:23:18.463Z,96900.02
2023-03-05T23:25:46.431Z,96901.59
2023-03-05T23:28:14.487Z,96906.77
2023-03-05T23:30:43.497Z,96903.41
2023-03-05T23:33:17.453Z,96907.63
2023-03-05T23:35:57.867Z,96906.96
2023-03-05T23:42:30.668Z,96908.12
2023-03-05T23:44:58.832Z,96906.58
2023-03-05T23:47:26.861Z,96902.80
2023-03-05T23:49:54.885Z,96906.02
2023-03-05T23:52:22.781Z,96909.48
2023-03-05T23:54:50.700Z,96905.39
2023-03-05T23:57:19.035Z,96908.10
2023-03-05T23:59:47.081Z,96902.89
